sensor_id;sensor_type;location;lat;lon;timestamp;pressure;altitude;pressure_sealevel;temperature;humidity
62703;BME280;66022;50.448;18.122;2023-04-09T00:00:39;99951.65;;;6.93;98.86
62703;BME280;66022;50.448;18.122;2023-04-09T00:04:53;99946.81;;;6.93;98.50
62703;BME280;66022;50.448;18.122;2023-04-09T00:09:07;99943.95;;;6.92;99.97
62703;BME280;66022;50.448;18.122;2023-04-09T00:13:21;99940.61;;;6.91;99.31
62703;BME280;66022;50.448;18.122;2023-04-09T00:17:35;99939.03;;;6.89;100.00
62703;BME280;66022;50.448;18.122;2023-04-09T00:21:49;99935.77;;;6.89;98.59
62703;BME280;66022;50.448;18.122;2023-04-09T00:26:03;99933.09;;;6.87;100.00
62703;BME280;66022;50.448;18.122;2023-04-09T00:30:17;99930.98;;;6.87;98.86
62703;BME280;66022;50.448;18.122;2023-04-09T00:34:31;99930.82;;;6.86;98.67
62703;BME280;66022;50.448;18.122;2023-04-09T00:38:45;99929.41;;;6.83;99.93
62703;BME280;66022;50.448;18.122;2023-04-09T00:42:59;99928.88;;;6.82;99.24
62703;BME280;66022;50.448;18.122;2023-04-09T00:47:13;99929.55;;;6.80;100.00
62703;BME280;66022;50.448;18.122;2023-04-09T00:51:27;99930.63;;;6.80;98.83
62703;BME280;66022;50.448;18.122;2023-04-09T00:55:41;99932.79;;;6.81;98.13
62703;BME280;66022;50.448;18.122;2023-04-09T00:59:55;99932.89;;;6.82;98.39
62703;BME280;66022;50.448;18.122;2023-04-09T01:04:09;99932.32;;;6.84;98.49
62703;BME280;66022;50.448;18.122;2023-04-09T01:12:40;99929.80;;;6.83;99.32
62703;BME280;66022;50.448;18.122;2023-04-09T01:16:52;99928.53;;;6.81;100.00
62703;BME280;66022;50.448;18.122;2023-04-09T01:29:34;99920.01;;;6.74;100.00
62703;BME280;66022;50.448;18.122;2023-04-09T01:33:47;99917.91;;;6.73;99.24
62703;BME280;66022;50.448;18.122;2023-04-09T01:38:01;99916.22;;;6.72;100.00
62703;BME280;66022;50.448;18.122;2023-04-09T01:42:15;99914.81;;;6.73;98.68
62703;BME280;66022;50.448;18.122;2023-04-09T01:46:29;99912.05;;;6.72;100.00
62703;BME280;66022;50.448;18.122;2023-04-09T01:50:43;99910.39;;;6.73;98.82
62703;BME280;66022;50.448;18.122;2023-04-09T01:54:57;99909.58;;;6.74;98.33
62703;BME280;66022;50.448;18.122;2023-04-09T01:59:11;99910.80;;;6.74;99.13
62703;BME280;66022;50.448;18.122;2023-04-09T02:03:27;99912.39;;;6.73;98.54
62703;BME280;66022;50.448;18.122;2023-04-09T02:07:43;99914.62;;;6.70;100.00
62703;BME280;66022;50.448;18.122;2023-04-09T02:11:53;99916.72;;;6.67;98.82
62703;BME280;66022;50.448;18.122;2023-04-09T02:16:08;99916.94;;;6.59;100.00
62703;BME280;66022;50.448;18.122;2023-04-09T02:20:21;99915.58;;;6.59;98.50
62703;BME280;66022;50.448;18.122;2023-04-09T02:24:35;99914.94;;;6.59;97.93
62703;BME280;66022;50.448;18.122;2023-04-09T02:28:49;99913.92;;;6.58;99.34
62703;BME280;66022;50.448;18.122;2023-04-09T02:33:03;99913.49;;;6.58;97.99
62703;BME280;66022;50.448;18.122;2023-04-09T02:37:18;99913.40;;;6.56;100.00
62703;BME280;66022;50.448;18.122;2023-04-09T02:41:31;99912.41;;;6.56;98.00
62703;BME280;66022;50.448;18.122;2023-04-09T02:45:45;99910.14;;;6.54;98.65
62703;BME280;66022;50.448;18.122;2023-04-09T02:49:59;99907.98;;;6.54;98.35
62703;BME280;66022;50.448;18.122;2023-04-09T02:54:13;99906.65;;;6.53;97.72
62703;BME280;66022;50.448;18.122;2023-04-09T02:58:27;99906.05;;;6.49;99.58
62703;BME280;66022;50.448;18.122;2023-04-09T03:02:41;99906.86;;;6.48;98.36
62703;BME280;66022;50.448;18.122;2023-04-09T03:06:55;99907.85;;;6.44;100.00
62703;BME280;66022;50.448;18.122;2023-04-09T03:11:09;99908.76;;;6.42;98.28
62703;BME280;66022;50.448;18.122;2023-04-09T03:15:23;99910.33;;;6.41;97.92
62703;BME280;66022;50.448;18.122;2023-04-09T03:19:37;99912.02;;;6.40;98.70
62703;BME280;66022;50.448;18.122;2023-04-09T03:23:51;99913.23;;;6.40;97.70
62703;BME280;66022;50.448;18.122;2023-04-09T03:28:05;99912.06;;;6.38;99.89
62703;BME280;66022;50.448;18.122;2023-04-09T03:32:19;99910.33;;;6.39;97.75
62703;BME280;66022;50.448;18.122;2023-04-09T03:36:33;99907.48;;;6.37;100.00
62703;BME280;66022;50.448;18.122;2023-04-09T03:40:48;99905.56;;;6.37;98.21
62703;BME280;66022;50.448;18.122;2023-04-09T03:45:02;99905.24;;;6.36;97.81
62703;BME280;66022;50.448;18.122;2023-04-09T03:49:16;99904.80;;;6.35;99.00
62703;BME280;66022;50.448;18.122;2023-04-09T03:53:29;99904.36;;;6.34;98.23
62703;BME280;66022;50.448;18.122;2023-04-09T03:57:43;99904.69;;;6.32;100.00
62703;BME280;66022;50.448;18.122;2023-04-09T04:01:57;99906.44;;;6.32;98.07
62703;BME280;66022;50.448;18.122;2023-04-09T04:06:11;99908.17;;;6.29;100.00
62703;BME280;66022;50.448;18.122;2023-04-09T04:10:25;99909.36;;;6.30;98.87
62703;BME280;66022;50.448;18.122;2023-04-09T04:14:39;99911.94;;;6.29;98.37
62703;BME280;66022;50.448;18.122;2023-04-09T04:18:53;99914.09;;;6.28;99.55
62703;BME280;66022;50.448;18.122;2023-04-09T04:23:07;99916.85;;;6.28;98.57
62703;BME280;66022;50.448;18.122;2023-04-09T04:27:21;99919.03;;;6.27;100.00
62703;BME280;66022;50.448;18.122;2023-04-09T04:31:35;99919.28;;;6.27;98.92
62703;BME280;66022;50.448;18.122;2023-04-09T04:35:49;99919.84;;;6.26;100.00
62703;BME280;66022;50.448;18.122;2023-04-09T04:40:04;99919.70;;;6.27;99.44
62703;BME280;66022;50.448;18.122;2023-04-09T04:44:18;99919.62;;;6.29;98.39
62703;BME280;66022;50.448;18.122;2023-04-09T04:48:31;99918.79;;;6.29;99.81
62703;BME280;66022;50.448;18.122;2023-04-09T04:52:45;99918.87;;;6.32;98.59
62703;BME280;66022;50.448;18.122;2023-04-09T04:56:59;99919.64;;;6.33;100.00
62703;BME280;66022;50.448;18.122;2023-04-09T05:01:14;99920.57;;;6.35;98.54
62703;BME280;66022;50.448;18.122;2023-04-09T05:05:28;99921.25;;;6.37;98.37
62703;BME280;66022;50.448;18.122;2023-04-09T05:09:41;99920.67;;;6.40;98.90
62703;BME280;66022;50.448;18.122;2023-04-09T05:13:55;99920.43;;;6.43;98.22
62703;BME280;66022;50.448;18.122;2023-04-09T05:18:09;99920.62;;;6.45;99.81
62703;BME280;66022;50.448;18.122;2023-04-09T05:22:24;99922.58;;;6.49;98.45
62703;BME280;66022;50.448;18.122;2023-04-09T05:26:37;99924.17;;;6.52;100.00
62703;BME280;66022;50.448;18.122;2023-04-09T05:30:51;99926.34;;;6.56;98.32
62703;BME280;66022;50.448;18.122;2023-04-09T05:35:06;99927.11;;;6.60;98.02
62703;BME280;66022;50.448;18.122;2023-04-09T05:39:20;99928.13;;;6.64;99.21
62703;BME280;66022;50.448;18.122;2023-04-09T05:43:33;99930.31;;;6.68;97.86
62703;BME280;66022;50.448;18.122;2023-04-09T05:47:48;99933.43;;;6.71;100.00
62703;BME280;66022;50.448;18.122;2023-04-09T05:52:02;99935.47;;;6.76;98.57
62703;BME280;66022;50.448;18.122;2023-04-09T05:56:15;99937.14;;;6.78;100.00
62703;BME280;66022;50.448;18.122;2023-04-09T06:00:30;99939.50;;;6.84;98.70
62703;BME280;66022;50.448;18.122;2023-04-09T06:04:44;99941.19;;;6.89;98.55
62703;BME280;66022;50.448;18.122;2023-04-09T06:08:57;99941.94;;;6.94;99.76
62703;BME280;66022;50.448;18.122;2023-04-09T06:13:11;99942.38;;;7.00;98.43
62703;BME280;66022;50.448;18.122;2023-04-09T06:17:25;99942.99;;;7.05;100.00
62703;BME280;66022;50.448;18.122;2023-04-09T06:21:39;99943.75;;;7.11;98.85
62703;BME280;66022;50.448;18.122;2023-04-09T06:25:54;99944.86;;;7.14;100.00
62703;BME280;66022;50.448;18.122;2023-04-09T06:30:08;99945.88;;;7.19;99.15
62703;BME280;66022;50.448;18.122;2023-04-09T06:34:22;99947.72;;;7.24;98.60
62703;BME280;66022;50.448;18.122;2023-04-09T06:38:35;99949.50;;;7.27;99.71
62703;BME280;66022;50.448;18.122;2023-04-09T06:42:49;99951.76;;;7.32;98.20
62703;BME280;66022;50.448;18.122;2023-04-09T06:47:03;99954.44;;;7.36;100.00
62703;BME280;66022;50.448;18.122;2023-04-09T06:51:21;99957.98;;;7.43;98.01
62703;BME280;66022;50.448;18.122;2023-04-09T06:55:31;99961.15;;;7.50;97.47
62703;BME280;66022;50.448;18.122;2023-04-09T06:59:45;99965.17;;;7.57;98.05
62703;BME280;66022;50.448;18.122;2023-04-09T07:04:00;99968.28;;;7.64;97.66
62703;BME280;66022;50.448;18.122;2023-04-09T07:08:13;99970.20;;;7.69;99.31
62703;BME280;66022;50.448;18.122;2023-04-09T07:12:28;99971.63;;;7.78;97.22
62703;BME280;66022;50.448;18.122;2023-04-09T07:16:41;99972.89;;;7.85;100.00
62703;BME280;66022;50.448;18.122;2023-04-09T07:20:55;99974.06;;;7.95;97.32
62703;BME280;66022;50.448;18.122;2023-04-09T07:25:09;99974.98;;;8.04;96.87
62703;BME280;66022;50.448;18.122;2023-04-09T07:29:23;99976.81;;;8.12;97.42
62703;BME280;66022;50.448;18.122;2023-04-09T07:33:37;99977.06;;;8.21;96.39
62703;BME280;66022;50.448;18.122;2023-04-09T07:37:51;99977.64;;;8.28;98.09
62703;BME280;66022;50.448;18.122;2023-04-09T07:42:06;99977.95;;;8.37;95.79
62703;BME280;66022;50.448;18.122;2023-04-09T07:46:22;99980.08;;;8.43;100.00
62703;BME280;66022;50.448;18.122;2023-04-09T07:50:36;99981.88;;;8.54;95.78
62703;BME280;66022;50.448;18.122;2023-04-09T07:54:47;99984.63;;;8.63;94.93
62703;BME280;66022;50.448;18.122;2023-04-09T07:59:01;99987.14;;;8.71;95.16
62703;BME280;66022;50.448;18.122;2023-04-09T08:03:15;99989.11;;;8.80;94.03
62703;BME280;66022;50.448;18.122;2023-04-09T08:07:29;99990.59;;;8.87;95.34
62703;BME280;66022;50.448;18.122;2023-04-09T08:11:43;99991.83;;;8.97;93.79
62703;BME280;66022;50.448;18.122;2023-04-09T08:16:00;99992.85;;;9.06;94.67
62703;BME280;66022;50.448;18.122;2023-04-09T08:20:11;99992.88;;;9.19;92.69
62703;BME280;66022;50.448;18.122;2023-04-09T08:24:26;99993.16;;;9.32;92.09
62703;BME280;66022;50.448;18.122;2023-04-09T08:28:39;99995.07;;;9.39;91.73
62703;BME280;66022;50.448;18.122;2023-04-09T08:32:53;99997.97;;;9.44;92.26
62703;BME280;66022;50.448;18.122;2023-04-09T08:37:07;100001.98;;;9.45;94.39
62703;BME280;66022;50.448;18.122;2023-04-09T08:41:25;100005.33;;;9.47;92.16
62703;BME280;66022;50.448;18.122;2023-04-09T08:45:37;100007.86;;;9.46;92.03
62703;BME280;66022;50.448;18.122;2023-04-09T08:49:50;100009.11;;;9.45;92.17
62703;BME280;66022;50.448;18.122;2023-04-09T08:54:04;100009.70;;;9.44;92.33
62703;BME280;66022;50.448;18.122;2023-04-09T08:58:18;100009.71;;;9.43;92.84
62703;BME280;66022;50.448;18.122;2023-04-09T09:02:32;100010.10;;;9.47;91.56
62703;BME280;66022;50.448;18.122;2023-04-09T09:06:46;100010.17;;;9.51;93.04
62703;BME280;66022;50.448;18.122;2023-04-09T09:11:00;100010.99;;;9.56;91.05
62703;BME280;66022;50.448;18.122;2023-04-09T09:19:29;100012.68;;;9.64;91.80
62703;BME280;66022;50.448;18.122;2023-04-09T09:23:42;100013.34;;;9.69;90.56
62703;BME280;66022;50.448;18.122;2023-04-09T09:28:05;100014.56;;;9.72;91.80
62703;BME280;66022;50.448;18.122;2023-04-09T09:32:12;100015.46;;;9.78;90.98
62703;BME280;66022;50.448;18.122;2023-04-09T09:40:38;100016.05;;;9.87;90.89
62703;BME280;66022;50.448;18.122;2023-04-09T09:44:52;100017.46;;;9.92;91.23
62703;BME280;66022;50.448;18.122;2023-04-09T09:49:08;100018.25;;;9.96;90.03
62703;BME280;66022;50.448;18.122;2023-04-09T09:53:21;100018.22;;;10.02;90.41
62703;BME280;66022;50.448;18.122;2023-04-09T09:57:34;100016.64;;;10.09;90.48
62703;BME280;66022;50.448;18.122;2023-04-09T10:06:03;100014.70;;;10.19;90.63
62703;BME280;66022;50.448;18.122;2023-04-09T10:10:16;100013.39;;;10.26;88.49
62703;BME280;66022;50.448;18.122;2023-04-09T10:14:30;100012.28;;;10.33;88.19
62703;BME280;66022;50.448;18.122;2023-04-09T10:18:44;100011.63;;;10.38;88.77
62703;BME280;66022;50.448;18.122;2023-04-09T10:22:59;100010.82;;;10.45;88.87
62703;BME280;66022;50.448;18.122;2023-04-09T10:27:13;100009.34;;;10.51;88.62
62703;BME280;66022;50.448;18.122;2023-04-09T10:31:26;100006.48;;;10.59;87.66
62703;BME280;66022;50.448;18.122;2023-04-09T10:35:41;100004.39;;;10.67;86.97
62703;BME280;66022;50.448;18.122;2023-04-09T10:39:54;100002.31;;;10.72;86.32
62703;BME280;66022;50.448;18.122;2023-04-09T10:44:29;100000.14;;;10.78;86.67
62703;BME280;66022;50.448;18.122;2023-04-09T10:48:22;99998.16;;;10.82;86.82
62703;BME280;66022;50.448;18.122;2023-04-09T10:52:37;99996.55;;;10.91;88.23
62703;BME280;66022;50.448;18.122;2023-04-09T11:01:04;99994.75;;;11.07;87.42
62703;BME280;66022;50.448;18.122;2023-04-09T11:09:35;99994.22;;;11.16;88.24
62703;BME280;66022;50.448;18.122;2023-04-09T11:13:46;99994.87;;;11.17;87.35
62703;BME280;66022;50.448;18.122;2023-04-09T11:18:00;99995.58;;;11.14;88.48
62703;BME280;66022;50.448;18.122;2023-04-09T11:22:14;99995.78;;;11.12;88.75
62703;BME280;66022;50.448;18.122;2023-04-09T11:30:42;99996.72;;;11.06;90.50
62703;BME280;66022;50.448;18.122;2023-04-09T11:34:56;99997.05;;;11.06;89.60
62703;BME280;66022;50.448;18.122;2023-04-09T11:39:10;99997.41;;;11.03;88.75
62703;BME280;66022;50.448;18.122;2023-04-09T11:43:24;99997.85;;;11.02;88.14
62703;BME280;66022;50.448;18.122;2023-04-09T11:47:39;99997.09;;;11.04;88.66
62703;BME280;66022;50.448;18.122;2023-04-09T11:51:53;99995.72;;;11.12;87.82
62703;BME280;66022;50.448;18.122;2023-04-09T11:56:06;99995.54;;;11.16;88.43
62703;BME280;66022;50.448;18.122;2023-04-09T12:00:21;99997.49;;;11.25;86.80
62703;BME280;66022;50.448;18.122;2023-04-09T12:04:35;99999.59;;;11.30;85.01
62703;BME280;66022;50.448;18.122;2023-04-09T12:13:04;100004.27;;;11.39;86.23
62703;BME280;66022;50.448;18.122;2023-04-09T12:17:19;100005.98;;;11.41;85.80
62703;BME280;66022;50.448;18.122;2023-04-09T12:25:44;100010.66;;;11.45;84.84
62703;BME280;66022;50.448;18.122;2023-04-09T12:29:59;100011.49;;;11.46;85.72
62703;BME280;66022;50.448;18.122;2023-04-09T12:34:13;100011.68;;;11.50;85.79
62703;BME280;66022;50.448;18.122;2023-04-09T12:38:27;100011.41;;;11.52;85.16
62703;BME280;66022;50.448;18.122;2023-04-09T12:42:41;100011.42;;;11.57;84.46
62703;BME280;66022;50.448;18.122;2023-04-09T12:46:54;100011.13;;;11.60;84.28
62703;BME280;66022;50.448;18.122;2023-04-09T12:51:08;100011.35;;;11.61;83.62
62703;BME280;66022;50.448;18.122;2023-04-09T12:55:23;100011.02;;;11.62;84.34
62703;BME280;66022;50.448;18.122;2023-04-09T12:59:37;100009.80;;;11.63;83.48
62703;BME280;66022;50.448;18.122;2023-04-09T13:03:50;100008.11;;;11.66;82.94
62703;BME280;66022;50.448;18.122;2023-04-09T13:08:05;100007.23;;;11.67;83.31
62703;BME280;66022;50.448;18.122;2023-04-09T13:12:19;100006.95;;;11.70;82.57
62703;BME280;66022;50.448;18.122;2023-04-09T13:16:33;100007.45;;;11.69;84.71
62703;BME280;66022;50.448;18.122;2023-04-09T13:20:47;100007.40;;;11.72;81.88
62703;BME280;66022;50.448;18.122;2023-04-09T13:25:01;100006.76;;;11.76;82.81
62703;BME280;66022;50.448;18.122;2023-04-09T13:29:15;100006.30;;;11.81;82.72
62703;BME280;66022;50.448;18.122;2023-04-09T13:33:29;100005.97;;;11.85;81.58
62703;BME280;66022;50.448;18.122;2023-04-09T13:37:42;100005.30;;;11.85;81.32
62703;BME280;66022;50.448;18.122;2023-04-09T13:41:57;100004.19;;;11.86;82.33
62703;BME280;66022;50.448;18.122;2023-04-09T13:46:10;100003.47;;;11.83;81.21
62703;BME280;66022;50.448;18.122;2023-04-09T13:50:25;100003.20;;;11.85;81.05
62703;BME280;66022;50.448;18.122;2023-04-09T13:54:39;100001.70;;;11.87;81.84
62703;BME280;66022;50.448;18.122;2023-04-09T13:58:53;99999.86;;;11.90;81.20
62703;BME280;66022;50.448;18.122;2023-04-09T14:03:07;99998.94;;;11.95;81.56
62703;BME280;66022;50.448;18.122;2023-04-09T14:07:21;99996.97;;;11.96;81.99
62703;BME280;66022;50.448;18.122;2023-04-09T14:11:35;99993.83;;;11.99;82.20
62703;BME280;66022;50.448;18.122;2023-04-09T14:15:49;99991.52;;;12.00;82.41
62703;BME280;66022;50.448;18.122;2023-04-09T14:20:03;99989.31;;;12.02;81.77
62703;BME280;66022;50.448;18.122;2023-04-09T14:24:16;99986.16;;;12.04;82.03
62703;BME280;66022;50.448;18.122;2023-04-09T14:28:33;99983.65;;;12.02;81.94
62703;BME280;66022;50.448;18.122;2023-04-09T14:32:45;99982.22;;;12.08;81.39
62703;BME280;66022;50.448;18.122;2023-04-09T14:36:59;99981.59;;;12.10;82.32
62703;BME280;66022;50.448;18.122;2023-04-09T14:41:13;99980.08;;;12.14;81.50
62703;BME280;66022;50.448;18.122;2023-04-09T14:45:27;99978.80;;;12.17;81.45
62703;BME280;66022;50.448;18.122;2023-04-09T14:49:41;99977.09;;;12.16;81.17
62703;BME280;66022;50.448;18.122;2023-04-09T14:53:55;99974.16;;;12.16;81.65
62703;BME280;66022;50.448;18.122;2023-04-09T14:58:09;99971.77;;;12.12;81.43
62703;BME280;66022;50.448;18.122;2023-04-09T15:02:23;99967.97;;;12.13;80.88
62703;BME280;66022;50.448;18.122;2023-04-09T15:06:37;99967.02;;;12.10;82.75
62703;BME280;66022;50.448;18.122;2023-04-09T15:10:51;99967.47;;;12.08;81.54
62703;BME280;66022;50.448;18.122;2023-04-09T15:15:05;99967.36;;;12.04;81.99
62703;BME280;66022;50.448;18.122;2023-04-09T15:19:19;99967.72;;;11.97;81.71
62703;BME280;66022;50.448;18.122;2023-04-09T15:23:33;99966.74;;;11.91;82.06
62703;BME280;66022;50.448;18.122;2023-04-09T15:27:47;99964.82;;;11.82;83.99
62703;BME280;66022;50.448;18.122;2023-04-09T15:32:01;99964.61;;;11.74;82.70
62703;BME280;66022;50.448;18.122;2023-04-09T15:36:15;99965.90;;;11.61;84.87
62703;BME280;66022;50.448;18.122;2023-04-09T15:40:31;99968.39;;;11.53;83.46
62703;BME280;66022;50.448;18.122;2023-04-09T15:44:43;99972.50;;;11.43;83.22
62703;BME280;66022;50.448;18.122;2023-04-09T15:48:57;99974.69;;;11.30;84.38
62703;BME280;66022;50.448;18.122;2023-04-09T15:53:12;99976.40;;;11.20;84.13
62703;BME280;66022;50.448;18.122;2023-04-09T15:57:25;99978.17;;;11.09;85.16
62703;BME280;66022;50.448;18.122;2023-04-09T16:01:39;99980.44;;;11.01;84.60
62703;BME280;66022;50.448;18.122;2023-04-09T16:05:53;99982.15;;;10.92;85.83
62703;BME280;66022;50.448;18.122;2023-04-09T16:10:07;99984.77;;;10.85;84.68
62703;BME280;66022;50.448;18.122;2023-04-09T16:14:21;99987.02;;;10.80;83.62
62703;BME280;66022;50.448;18.122;2023-04-09T16:18:35;99988.70;;;10.71;84.25
62703;BME280;66022;50.448;18.122;2023-04-09T16:22:49;99989.61;;;10.65;84.52
62703;BME280;66022;50.448;18.122;2023-04-09T16:27:03;99990.61;;;10.58;85.43
62703;BME280;66022;50.448;18.122;2023-04-09T16:31:17;99991.85;;;10.52;84.79
62703;BME280;66022;50.448;18.122;2023-04-09T16:35:31;99993.66;;;10.45;84.72
62703;BME280;66022;50.448;18.122;2023-04-09T16:39:45;99995.67;;;10.38;84.85
62703;BME280;66022;50.448;18.122;2023-04-09T16:43:59;99997.19;;;10.31;84.76
62703;BME280;66022;50.448;18.122;2023-04-09T16:48:13;99999.33;;;10.20;85.57
62703;BME280;66022;50.448;18.122;2023-04-09T16:52:27;100001.59;;;10.12;85.50
62703;BME280;66022;50.448;18.122;2023-04-09T16:56:41;100002.86;;;10.02;88.19
62703;BME280;66022;50.448;18.122;2023-04-09T17:00:55;100004.60;;;9.95;86.18
62703;BME280;66022;50.448;18.122;2023-04-09T17:05:09;100006.56;;;9.88;86.49
62703;BME280;66022;50.448;18.122;2023-04-09T17:09:23;100007.86;;;9.81;86.74
62703;BME280;66022;50.448;18.122;2023-04-09T17:13:37;100010.67;;;9.76;86.77
62703;BME280;66022;50.448;18.122;2023-04-09T17:17:51;100012.31;;;9.69;87.78
62703;BME280;66022;50.448;18.122;2023-04-09T17:22:05;100012.42;;;9.64;87.13
62703;BME280;66022;50.448;18.122;2023-04-09T17:26:19;100013.48;;;9.56;91.00
62703;BME280;66022;50.448;18.122;2023-04-09T17:30:33;100014.01;;;9.54;87.62
62703;BME280;66022;50.448;18.122;2023-04-09T17:34:47;100015.45;;;9.51;87.74
62703;BME280;66022;50.448;18.122;2023-04-09T17:39:01;100016.31;;;9.47;88.12
62703;BME280;66022;50.448;18.122;2023-04-09T17:43:15;100018.77;;;9.44;88.02
62703;BME280;66022;50.448;18.122;2023-04-09T17:47:29;100021.20;;;9.40;88.60
62703;BME280;66022;50.448;18.122;2023-04-09T17:51:43;100023.60;;;9.37;87.66
62703;BME280;66022;50.448;18.122;2023-04-09T17:55:57;100026.54;;;9.30;90.31
62703;BME280;66022;50.448;18.122;2023-04-09T18:00:11;100029.86;;;9.25;87.85
62703;BME280;66022;50.448;18.122;2023-04-09T18:04:25;100032.12;;;9.19;87.51
62703;BME280;66022;50.448;18.122;2023-04-09T18:08:39;100035.67;;;9.10;88.36
62703;BME280;66022;50.448;18.122;2023-04-09T18:12:53;100038.97;;;9.03;88.07
62703;BME280;66022;50.448;18.122;2023-04-09T18:17:07;100042.53;;;8.94;89.69
62703;BME280;66022;50.448;18.122;2023-04-09T18:21:21;100045.97;;;8.88;88.66
62703;BME280;66022;50.448;18.122;2023-04-09T18:25:35;100049.20;;;8.80;88.56
62703;BME280;66022;50.448;18.122;2023-04-09T18:29:49;100052.20;;;8.73;89.10
62703;BME280;66022;50.448;18.122;2023-04-09T18:34:03;100056.09;;;8.65;89.29
62703;BME280;66022;50.448;18.122;2023-04-09T18:38:17;100059.89;;;8.54;90.29
62703;BME280;66022;50.448;18.122;2023-04-09T18:42:31;100064.06;;;8.47;89.60
62703;BME280;66022;50.448;18.122;2023-04-09T18:46:45;100067.30;;;8.38;93.00
62703;BME280;66022;50.448;18.122;2023-04-09T18:50:59;100070.73;;;8.32;90.06
62703;BME280;66022;50.448;18.122;2023-04-09T18:55:13;100074.07;;;8.26;90.17
62703;BME280;66022;50.448;18.122;2023-04-09T18:59:27;100076.61;;;8.18;90.82
62703;BME280;66022;50.448;18.122;2023-04-09T19:03:41;100080.62;;;8.13;90.93
62703;BME280;66022;50.448;18.122;2023-04-09T19:07:58;100084.80;;;8.05;92.16
62703;BME280;66022;50.448;18.122;2023-04-09T19:12:09;100088.47;;;8.00;90.90
62703;BME280;66022;50.448;18.122;2023-04-09T19:16:23;100090.55;;;7.93;95.80
62703;BME280;66022;50.448;18.122;2023-04-09T19:20:37;100092.89;;;7.91;91.55
62703;BME280;66022;50.448;18.122;2023-04-09T19:24:51;100093.80;;;7.89;94.81
62703;BME280;66022;50.448;18.122;2023-04-09T19:29:05;100094.97;;;7.89;92.49
62703;BME280;66022;50.448;18.122;2023-04-09T19:33:20;100095.45;;;7.90;92.03
62703;BME280;66022;50.448;18.122;2023-04-09T19:37:33;100094.38;;;7.89;94.19
62703;BME280;66022;50.448;18.122;2023-04-09T19:41:47;100095.12;;;7.90;92.56
62703;BME280;66022;50.448;18.122;2023-04-09T19:46:04;100096.12;;;7.88;96.35
62703;BME280;66022;50.448;18.122;2023-04-09T19:50:15;100098.49;;;7.89;93.44
62703;BME280;66022;50.448;18.122;2023-04-09T19:54:29;100099.33;;;7.88;93.13
62703;BME280;66022;50.448;18.122;2023-04-09T19:58:44;100099.63;;;7.86;94.55
62703;BME280;66022;50.448;18.122;2023-04-09T20:02:57;100099.56;;;7.87;93.73
62703;BME280;66022;50.448;18.122;2023-04-09T20:07:11;100099.06;;;7.87;95.58
62703;BME280;66022;50.448;18.122;2023-04-09T20:11:25;100099.33;;;7.89;93.77
62703;BME280;66022;50.448;18.122;2023-04-09T20:15:39;100099.22;;;7.89;95.24
62703;BME280;66022;50.448;18.122;2023-04-09T20:19:53;100099.06;;;7.92;94.51
62703;BME280;66022;50.448;18.122;2023-04-09T20:24:07;100099.41;;;7.93;94.12
62703;BME280;66022;50.448;18.122;2023-04-09T20:28:21;100099.91;;;7.91;95.51
62703;BME280;66022;50.448;18.122;2023-04-09T20:32:35;100102.18;;;7.92;94.71
62703;BME280;66022;50.448;18.122;2023-04-09T20:36:49;100104.10;;;7.91;98.77
62703;BME280;66022;50.448;18.122;2023-04-09T20:41:03;100104.17;;;7.91;94.75
62703;BME280;66022;50.448;18.122;2023-04-09T20:45:17;100104.33;;;7.91;94.64
62703;BME280;66022;50.448;18.122;2023-04-09T20:49:31;100105.02;;;7.91;94.69
62703;BME280;66022;50.448;18.122;2023-04-09T20:53:45;100104.94;;;7.91;94.43
62703;BME280;66022;50.448;18.122;2023-04-09T20:57:59;100104.52;;;7.88;96.03
62703;BME280;66022;50.448;18.122;2023-04-09T21:02:13;100104.10;;;7.88;94.71
62703;BME280;66022;50.448;18.122;2023-04-09T21:06:27;100103.14;;;7.86;99.83
62703;BME280;66022;50.448;18.122;2023-04-09T21:10:41;100102.98;;;7.88;94.80
62703;BME280;66022;50.448;18.122;2023-04-09T21:14:58;100102.56;;;7.88;95.07
62703;BME280;66022;50.448;18.122;2023-04-09T21:19:09;100101.98;;;7.87;95.79
62703;BME280;66022;50.448;18.122;2023-04-09T21:23:24;100101.32;;;7.87;95.25
62703;BME280;66022;50.448;18.122;2023-04-09T21:27:37;100100.56;;;7.86;97.23
62703;BME280;66022;50.448;18.122;2023-04-09T21:31:51;100101.06;;;7.86;95.63
62703;BME280;66022;50.448;18.122;2023-04-09T21:36:05;100101.23;;;7.83;99.97
62703;BME280;66022;50.448;18.122;2023-04-09T21:40:19;100102.08;;;7.83;96.50
62703;BME280;66022;50.448;18.122;2023-04-09T21:44:33;100102.38;;;7.82;96.02
62703;BME280;66022;50.448;18.122;2023-04-09T21:48:47;100103.91;;;7.81;96.89
62703;BME280;66022;50.448;18.122;2023-04-09T21:53:01;100105.74;;;7.80;95.60
62703;BME280;66022;50.448;18.122;2023-04-09T21:57:15;100106.14;;;7.78;98.55
62703;BME280;66022;50.448;18.122;2023-04-09T22:01:29;100106.15;;;7.78;96.26
62703;BME280;66022;50.448;18.122;2023-04-09T22:05:43;100106.39;;;7.76;96.18
62703;BME280;66022;50.448;18.122;2023-04-09T22:09:57;100107.22;;;7.75;96.39
62703;BME280;66022;50.448;18.122;2023-04-09T22:14:14;100108.04;;;7.73;96.06
62703;BME280;66022;50.448;18.122;2023-04-09T22:18:25;100108.40;;;7.69;97.19
62703;BME280;66022;50.448;18.122;2023-04-09T22:22:39;100108.37;;;7.68;96.39
62703;BME280;66022;50.448;18.122;2023-04-09T22:26:53;100106.69;;;7.65;99.78
62703;BME280;66022;50.448;18.122;2023-04-09T22:31:07;100105.78;;;7.65;96.63
62703;BME280;66022;50.448;18.122;2023-04-09T22:35:21;100103.93;;;7.63;96.23
62703;BME280;66022;50.448;18.122;2023-04-09T22:39:35;100102.24;;;7.62;97.09
62703;BME280;66022;50.448;18.122;2023-04-09T22:43:49;100100.34;;;7.60;96.45
62703;BME280;66022;50.448;18.122;2023-04-09T22:48:03;100099.32;;;7.57;98.01
62703;BME280;66022;50.448;18.122;2023-04-09T22:52:17;100098.13;;;7.56;96.40
62703;BME280;66022;50.448;18.122;2023-04-09T22:56:31;100098.38;;;7.53;100.00